メインページ
METAR-TAF:

METAR-TAF

空港 :

Jimmy Lake, サスカチュワン州, カナダ

緯度: 54-55N, 経度: 109-57W, 海抜: 658m

現時点の気象観測

当レポートは26分前の20:00(UTC)に作成
北/北西の風 6kt、西からの間で変化する
気温 17°C
湿度 72%
気圧 1007 hPa
視程: 14.5km
高度3000ftの千切れ雲あり
高度6300ftの千切れ雲あり
高度7400ftの千切れ雲あり
高度9300ftの千切れ雲あり

METAR: CWHN 252000Z AUTO 33006KT 280V010 9SM BKN030 BKN063 BKN074 BKN093 17/12 A2975 RMK SLP084

時間: 14:26 (20:26 UTC)


TAF: 見つかりません

4,000以上の空港の気象観測と天気予報(METAR報とTAF報)

利用可能な観測所は地図上に黄色い丸と赤い丸で示す。

丸の上にカーソルを重ねると観測所名を参照できる。

次にクリックすると気象観測と天気予報を参照できる。

マップの切り替え:黒色「×」印の緑ボタンをクリックして拡大、「-」印の緑ボタンをクリックして縮小、緑色の三角印をクリックして隣りの地図に切り替え


METAR-TAF: